»·PEaware :: N4A U42-KBOI

N4A :: U42-KBOI

FLIGHT INFORMATION

Flight Status: Arrived
Operator: Privately registered:
United States
More flights under this callsign
Pilot: Alec D. (17934)
Aircraft: CESSNA 510 CITATION MUSTANG
(C510)
More flights by this aircraft type
Origin: U42 Salt Lake City Mun No 2
United States
Destination: KBOI Boise Air Terminal/Gowen
United States
More flights between these airports :: More routes between these airports
Route: TCH J15 BOI
File this flight plan on PilotEdge
Remarks:
Altitude:
(Current/Filed)
26,000ft
Speed:
(Current/Filed)
330kts
Departed: 23-Feb-18 07:43 PM
Arrived: 23-Feb-18 08:48 PM
Distance/Time
Traveled:
259nm/1:05
Distance/Time
To Go:
Arrived

Flight Plot

Page will automatically refresh every two minutes.

Flight plan parsing failed; only flown route is shown


Map Options




Map Legend


Flown Route
Filed Route
Departure Airport
Arrival Airport
Navaid (VOR, NDB)
Fix

Horizontal Profiles

Position Reports

Time Latitude Longitude Heading Altitude Ground
Speed
23-Feb-18 19:27 40.619658 -111.997714 73 4605ft 0kts
23-Feb-18 19:28 40.619658 -111.997714 73 4605ft 0kts
23-Feb-18 19:29 40.619658 -111.997714 73 4605ft 0kts
23-Feb-18 19:30 40.619658 -111.997714 73 4605ft 0kts
23-Feb-18 19:31 40.619658 -111.997714 73 4605ft 0kts
23-Feb-18 19:32 40.619658 -111.997714 73 4605ft 0kts
23-Feb-18 19:33 40.619658 -111.997714 73 4605ft 0kts
23-Feb-18 19:34 40.619658 -111.997714 73 4605ft 0kts
23-Feb-18 19:35 40.619659 -111.997713 73 4605ft 0kts
23-Feb-18 19:36 40.619659 -111.997712 73 4605ft 0kts
23-Feb-18 19:37 40.619659 -111.997711 73 4605ft 0kts
23-Feb-18 19:38 40.619659 -111.997710 73 4605ft 0kts
23-Feb-18 19:39 40.619659 -111.997710 73 4605ft 0kts
23-Feb-18 19:40 40.619659 -111.997709 73 4605ft 0kts
23-Feb-18 19:41 40.619660 -111.997708 73 4605ft 0kts
23-Feb-18 19:42 40.619660 -111.997707 73 4605ft 0kts
23-Feb-18 19:43 40.619660 -111.997706 73 4605ft 0kts
23-Feb-18 19:44 40.619522 -111.996661 103 4605ft 8kts
23-Feb-18 19:45 40.617085 -111.994953 80 4605ft 12kts
23-Feb-18 19:46 40.613525 -111.993385 171 4605ft 18kts
23-Feb-18 19:47 40.611007 -111.992209 80 4605ft 0kts
23-Feb-18 19:48 40.611007 -111.992208 80 4605ft 0kts
23-Feb-18 19:49 40.611030 -111.991955 82 4605ft 7kts
23-Feb-18 19:50 40.624389 -111.993738 355 4735ft 115kts
23-Feb-18 19:51 40.664830 -111.990198 4 6661ft 175kts
23-Feb-18 19:52 40.713136 -111.988288 2 9623ft 173kts
23-Feb-18 19:53 40.762009 -111.986053 359 12087ft 182kts
23-Feb-18 19:54 40.815141 -111.983636 1 14418ft 189kts
23-Feb-18 19:55 40.864225 -112.004749 317 16474ft 198kts
23-Feb-18 19:56 40.902464 -112.059003 312 18343ft 204kts
23-Feb-18 19:57 40.940799 -112.115758 313 20038ft 208kts
23-Feb-18 19:58 40.980183 -112.174191 314 21541ft 214kts
23-Feb-18 19:59 41.020836 -112.234612 315 22851ft 223kts
23-Feb-18 20:00 41.061150 -112.294558 311 24394ft 216kts
23-Feb-18 20:01 41.101663 -112.355053 309 25601ft 221kts
23-Feb-18 20:02 41.143874 -112.418387 310 26218ft 248kts
23-Feb-18 20:03 41.193516 -112.492666 306 26209ft 289kts
23-Feb-18 20:04 41.250154 -112.578062 306 26210ft 323kts
23-Feb-18 20:05 41.311962 -112.671411 306 26204ft 348kts
23-Feb-18 20:06 41.375169 -112.766694 307 26218ft 330kts
23-Feb-18 20:07 41.434271 -112.856550 311 26221ft 320kts
23-Feb-18 20:08 41.493100 -112.945906 310 26215ft 321kts
23-Feb-18 20:09 41.551663 -113.035273 311 26154ft 319kts
23-Feb-18 20:10 41.610069 -113.124652 311 26170ft 320kts
23-Feb-18 20:11 41.668412 -113.214147 311 26141ft 320kts
23-Feb-18 20:12 41.725969 -113.303103 313 26073ft 316kts
23-Feb-18 20:13 41.783491 -113.391646 311 26081ft 313kts
23-Feb-18 20:14 41.840530 -113.480145 312 26079ft 314kts
23-Feb-18 20:15 41.898061 -113.569745 313 26080ft 316kts
23-Feb-18 20:16 41.955468 -113.659123 313 26068ft 317kts
23-Feb-18 20:17 42.012892 -113.748935 313 26118ft 316kts
23-Feb-18 20:18 42.070054 -113.838596 314 26159ft 316kts
23-Feb-18 20:19 42.127039 -113.928272 314 26180ft 315kts
23-Feb-18 20:20 42.184000 -114.018194 314 26225ft 314kts
23-Feb-18 20:21 42.240575 -114.107789 315 26243ft 314kts
23-Feb-18 20:22 42.296589 -114.196561 311 26251ft 300kts
23-Feb-18 20:23 42.351273 -114.283203 307 26252ft 306kts
23-Feb-18 20:24 42.405175 -114.369660 310 26258ft 299kts
23-Feb-18 20:25 42.460052 -114.457849 316 26260ft 314kts
23-Feb-18 20:26 42.517302 -114.547421 317 26260ft 314kts
23-Feb-18 20:27 42.574916 -114.636278 317 26260ft 314kts
23-Feb-18 20:28 42.632476 -114.725445 317 26260ft 314kts
23-Feb-18 20:29 42.690064 -114.815027 316 26260ft 314kts
23-Feb-18 20:30 42.745490 -114.901926 319 25481ft 304kts
23-Feb-18 20:31 42.800641 -114.988294 320 23984ft 296kts
23-Feb-18 20:32 42.853927 -115.072198 323 22483ft 290kts
23-Feb-18 20:33 42.906567 -115.154728 322 20988ft 286kts
23-Feb-18 20:34 42.957665 -115.235457 321 19487ft 276kts
23-Feb-18 20:35 43.007530 -115.314415 321 17984ft 271kts
23-Feb-18 20:36 43.056290 -115.391685 319 16485ft 267kts
23-Feb-18 20:37 43.103763 -115.467400 319 15979ft 258kts
23-Feb-18 20:38 43.150295 -115.541664 320 15981ft 257kts
23-Feb-18 20:39 43.197344 -115.616898 320 15986ft 263kts
23-Feb-18 20:40 43.245924 -115.694612 320 15673ft 274kts
23-Feb-18 20:41 43.296826 -115.776320 319 14325ft 288kts
23-Feb-18 20:42 43.348589 -115.860388 316 12921ft 283kts
23-Feb-18 20:43 43.375694 -115.958303 293 11543ft 262kts
23-Feb-18 20:44 43.395756 -116.050565 292 10174ft 245kts
23-Feb-18 20:45 43.415952 -116.135891 293 9989ft 225kts
23-Feb-18 20:46 43.435199 -116.215889 293 9989ft 214kts
23-Feb-18 20:47 43.456129 -116.292871 301 8965ft 214kts
23-Feb-18 20:48 43.489054 -116.360082 307 7769ft 211kts
23-Feb-18 20:49 43.530367 -116.412959 354 6562ft 208kts
23-Feb-18 20:50 43.579535 -116.384558 27 5417ft 171kts
23-Feb-18 20:51 43.594161 -116.338695 92 4255ft 130kts
23-Feb-18 20:52 43.590009 -116.298566 101 3956ft 91kts
23-Feb-18 20:53 43.579757 -116.265535 108 3374ft 97kts
23-Feb-18 20:54 43.568564 -116.232130 112 2874ft 76kts
23-Feb-18 20:55 43.566282 -116.223282 15 2873ft 0kts
23-Feb-18 20:56 43.567231 -116.224481 294 2873ft 16kts
23-Feb-18 20:57 43.569215 -116.228227 25 2873ft 11kts
23-Feb-18 20:58 43.570558 -116.228837 271 2873ft 0kts
23-Feb-18 20:59 43.570559 -116.228838 271 2873ft 0kts
23-Feb-18 21:00 43.570559 -116.228838 271 2873ft 0kts

Navigation Log

Ident Type
Flight plan parsing failed, navigation log unavailable